Terminal Aerodrome Forecast
Issued by NWS

Home | Current Version | Previous Version | Text Only | Print | Product List | Glossary On
Versions: 1 2 3 4 5 6 7 8 9 10 11 12 13
000
FTUS41 KBTV 301125
TAFSLK
TAF
KSLK 301125Z 3012/0112 06005KT P6SM BKN080
     FM301500 06005KT P6SM VCSH BKN060 OVC100
     FM302200 11008KT P6SM VCSH SCT025 OVC030
     FM010300 16010KT 4SM -SHRA BR SCT015 BKN020 OVC030
     FM010700 17007KT 5SM -SHRA BR SCT008 BKN015 OVC020
      WS020/20040KT=

USA.gov is the U.S. government's official web portal to all federal, state and local government web resources and services.